createdAt,value
2022-09-28T00:01:17.061Z,48.42
2022-09-28T00:03:46.688Z,48.32
2022-09-28T00:06:17.236Z,48.39
2022-09-28T00:08:45.333Z,48.43
2022-09-28T00:11:15.485Z,48.45
2022-09-28T00:13:44.688Z,48.29
2022-09-28T00:16:14.963Z,48.66
2022-09-28T00:18:43.703Z,48.56
2022-09-28T00:21:15.494Z,48.71
2022-09-28T00:23:58.241Z,48.60
2022-09-28T00:26:28.360Z,48.67
2022-09-28T00:28:58.657Z,48.57
2022-09-28T00:31:27.496Z,48.65
2022-09-28T00:33:56.952Z,48.96
2022-09-28T00:36:28.220Z,48.73
2022-09-28T00:38:56.560Z,48.88
2022-09-28T00:41:25.281Z,49.03
2022-09-28T00:43:53.382Z,48.99
2022-09-28T00:46:28.133Z,49.25
2022-09-28T00:49:00.337Z,49.39
2022-09-28T00:51:31.349Z,49.43
2022-09-28T00:54:02.528Z,49.62
2022-09-28T00:56:34.367Z,49.33
2022-09-28T00:59:04.784Z,49.41
2022-09-28T01:01:32.909Z,49.62
2022-09-28T01:04:02.817Z,49.51
2022-09-28T01:06:34.968Z,49.34
2022-09-28T01:09:05.768Z,49.10
2022-09-28T01:11:36.538Z,49.02
2022-09-28T01:14:05.211Z,49.05
2022-09-28T01:16:42.675Z,48.76
2022-09-28T01:19:38.394Z,48.88
2022-09-28T01:22:24.227Z,49.01
2022-09-28T01:25:01.710Z,48.71
2022-09-28T01:27:36.243Z,48.53
2022-09-28T01:30:07.478Z,48.55
2022-09-28T01:32:43.376Z,48.44
2022-09-28T01:35:15.086Z,48.45
2022-09-28T01:37:47.675Z,48.34
2022-09-28T01:40:17.599Z,48.52
2022-09-28T01:42:52.034Z,48.29
2022-09-28T01:45:24.377Z,48.15
2022-09-28T01:47:55.315Z,48.15
2022-09-28T01:50:27.163Z,47.96
2022-09-28T01:53:00.674Z,47.64
2022-09-28T01:55:33.659Z,47.82
2022-09-28T01:58:08.407Z,47.95
2022-09-28T02:00:41.581Z,47.51
2022-09-28T02:03:16.841Z,47.02
2022-09-28T02:05:49.758Z,47.32
2022-09-28T02:08:25.800Z,47.41
2022-09-28T02:10:59.025Z,47.03
2022-09-28T02:13:32.765Z,47.19
2022-09-28T02:16:06.521Z,47.41
2022-09-28T02:18:35.106Z,46.99
2022-09-28T02:21:10.633Z,47.01
2022-09-28T02:23:42.707Z,46.95
2022-09-28T02:26:13.620Z,46.83
2022-09-28T02:28:43.020Z,46.77
2022-09-28T02:31:11.252Z,46.86
2022-09-28T02:33:43.152Z,46.96
2022-09-28T02:36:11.462Z,47.04
2022-09-28T02:38:40.965Z,47.03
2022-09-28T02:41:19.214Z,47.32
2022-09-28T02:43:59.453Z,47.41
2022-09-28T02:46:33.574Z,47.45
2022-09-28T02:49:30.116Z,47.62
2022-09-28T02:52:15.091Z,47.67
2022-09-28T02:55:14.555Z,47.87
2022-09-28T02:57:53.323Z,47.82
2022-09-28T03:00:25.298Z,47.79
2022-09-28T03:03:02.695Z,47.92
2022-09-28T03:05:40.061Z,48.15
2022-09-28T03:08:13.824Z,48.02
2022-09-28T03:10:47.564Z,47.98
2022-09-28T03:13:17.211Z,48.19
2022-09-28T03:15:48.970Z,48.20
2022-09-28T03:18:17.297Z,48.12
2022-09-28T03:20:45.280Z,48.50
2022-09-28T03:23:24.386Z,48.06
2022-09-28T03:25:53.230Z,48.47
2022-09-28T03:28:22.059Z,48.39
2022-09-28T03:30:51.884Z,48.56
2022-09-28T03:33:20.114Z,48.19
2022-09-28T03:35:49.222Z,48.56
2022-09-28T03:38:17.216Z,48.61
2022-09-28T03:40:45.495Z,48.42
2022-09-28T03:43:13.579Z,48.27
2022-09-28T03:45:41.541Z,48.28
2022-09-28T03:48:11.079Z,48.17
2022-09-28T03:50:39.113Z,47.99
2022-09-28T03:53:07.109Z,47.64
2022-09-28T03:55:35.125Z,47.72
2022-09-28T03:58:03.174Z,47.56
2022-09-28T04:00:31.201Z,47.90
2022-09-28T04:02:59.176Z,47.91
2022-09-28T04:05:28.675Z,47.67
2022-09-28T04:08:00.458Z,47.46
2022-09-28T04:10:28.639Z,47.79
2022-09-28T04:12:57.290Z,47.41
2022-09-28T04:15:25.686Z,47.58
2022-09-28T04:17:53.699Z,47.89
2022-09-28T04:20:22.288Z,47.50
2022-09-28T04:22:51.862Z,47.66
2022-09-28T04:25:19.863Z,47.20
2022-09-28T04:28:04.959Z,47.36
2022-09-28T04:30:33.029Z,47.51
2022-09-28T04:33:01.014Z,47.05
2022-09-28T04:35:29.313Z,47.34
2022-09-28T04:38:01.850Z,47.26
2022-09-28T04:40:29.983Z,47.07
2022-09-28T04:42:58.412Z,46.61
2022-09-28T04:45:27.122Z,46.87
2022-09-28T04:47:55.807Z,46.79
2022-09-28T04:50:23.877Z,46.78
2022-09-28T04:52:51.832Z,46.94
2022-09-28T04:55:21.708Z,46.51
2022-09-28T04:57:49.627Z,46.97
2022-09-28T05:00:18.175Z,46.73
2022-09-28T05:02:46.198Z,46.70
2022-09-28T05:05:14.899Z,46.95
2022-09-28T05:07:43.009Z,47.00
2022-09-28T05:10:11.280Z,47.13
2022-09-28T05:12:40.749Z,47.78
2022-09-28T05:15:09.237Z,47.40
2022-09-28T05:17:37.327Z,47.32
2022-09-28T05:20:06.021Z,47.27
2022-09-28T05:22:34.452Z,47.66
2022-09-28T05:25:03.015Z,47.58
2022-09-28T05:27:31.218Z,47.91
2022-09-28T05:30:00.617Z,48.06
2022-09-28T05:32:28.636Z,48.20
2022-09-28T05:34:57.045Z,47.80
2022-09-28T05:37:25.018Z,47.95
2022-09-28T05:39:53.211Z,47.76
2022-09-28T05:42:21.249Z,47.54
2022-09-28T05:44:49.155Z,47.54
2022-09-28T05:47:18.626Z,47.92
2022-09-28T05:49:47.678Z,47.38
2022-09-28T05:52:15.754Z,47.37
2022-09-28T05:54:43.821Z,47.02
2022-09-28T05:57:11.998Z,47.07
2022-09-28T05:59:40.105Z,46.88
2022-09-28T06:02:08.838Z,47.07
2022-09-28T06:04:40.672Z,47.41
2022-09-28T06:07:08.694Z,47.81
2022-09-28T06:09:36.891Z,47.83
2022-09-28T06:12:04.836Z,47.96
2022-09-28T06:14:32.923Z,47.18
2022-09-28T06:17:01.185Z,47.23
2022-09-28T06:19:29.256Z,46.16
2022-09-28T06:21:59.472Z,46.33
2022-09-28T06:24:27.546Z,46.10
2022-09-28T06:26:55.604Z,46.27
2022-09-28T06:29:23.630Z,46.68
2022-09-28T06:31:51.686Z,47.02
2022-09-28T06:34:21.522Z,47.37
2022-09-28T06:36:49.613Z,47.36
2022-09-28T06:39:19.298Z,46.56
2022-09-28T06:41:47.524Z,45.95
2022-09-28T06:44:15.601Z,46.18
2022-09-28T06:46:43.677Z,46.15
2022-09-28T06:49:13.402Z,46.20
2022-09-28T06:51:44.196Z,46.04
2022-09-28T06:54:12.453Z,45.71
2022-09-28T06:56:41.922Z,45.52
2022-09-28T06:59:10.069Z,46.78
2022-09-28T07:01:38.047Z,47.52
2022-09-28T07:04:06.427Z,48.28
2022-09-28T07:06:34.478Z,48.40
2022-09-28T07:09:23.764Z,48.88
2022-09-28T07:11:55.936Z,49.06
2022-09-28T07:14:42.030Z,48.97
2022-09-28T07:17:14.380Z,48.84
2022-09-28T07:19:42.737Z,49.38
2022-09-28T07:22:18.554Z,49.68
2022-09-28T07:24:49.070Z,49.96
2022-09-28T07:27:20.059Z,49.92
2022-09-28T07:29:48.035Z,49.63
2022-09-28T07:32:16.101Z,49.55
2022-09-28T07:34:44.875Z,49.15
2022-09-28T07:37:13.661Z,48.79
2022-09-28T07:39:59.533Z,48.31
2022-09-28T07:42:30.103Z,47.57
2022-09-28T07:45:00.811Z,47.85
2022-09-28T07:47:34.041Z,48.16
2022-09-28T07:50:02.890Z,47.99
2022-09-28T07:52:31.045Z,47.81
2022-09-28T07:55:02.183Z,47.83
2022-09-28T07:57:35.624Z,47.53
2022-09-28T08:00:05.853Z,46.65
2022-09-28T08:02:35.633Z,46.08
2022-09-28T08:05:03.875Z,45.75
2022-09-28T08:07:32.515Z,45.61
2022-09-28T08:10:00.594Z,45.08
2022-09-28T08:12:28.804Z,43.59
2022-09-28T08:15:00.408Z,43.30
2022-09-28T08:17:28.778Z,43.82
2022-09-28T08:20:14.128Z,44.26
2022-09-28T08:22:42.027Z,43.75
2022-09-28T08:25:10.604Z,43.77
2022-09-28T08:27:38.530Z,42.91
2022-09-28T08:30:10.335Z,42.02
2022-09-28T08:32:38.447Z,42.80
2022-09-28T08:35:07.037Z,43.65
2022-09-28T08:37:35.097Z,44.44
2022-09-28T08:40:03.652Z,45.02
2022-09-28T08:42:36.904Z,44.91
2022-09-28T08:45:12.904Z,44.73
2022-09-28T08:48:08.055Z,45.26
2022-09-28T08:50:47.480Z,44.87
2022-09-28T08:53:31.387Z,45.06
2022-09-28T08:56:01.863Z,44.91
2022-09-28T08:58:36.958Z,45.03
2022-09-28T09:01:08.657Z,44.90
2022-09-28T09:03:42.092Z,44.43
2022-09-28T09:06:23.391Z,44.50
2022-09-28T09:09:02.609Z,44.80
2022-09-28T09:11:45.739Z,44.44
2022-09-28T09:14:38.120Z,44.31
2022-09-28T09:17:19.714Z,44.60
2022-09-28T09:19:54.319Z,43.71
2022-09-28T09:22:35.085Z,43.44
2022-09-28T09:25:16.371Z,42.54
2022-09-28T09:28:00.029Z,42.28
2022-09-28T09:30:31.808Z,42.55
2022-09-28T09:33:24.386Z,43.26
2022-09-28T09:36:08.837Z,43.76
2022-09-28T09:38:51.411Z,43.44
2022-09-28T09:41:32.319Z,43.12
2022-09-28T09:44:16.233Z,42.96
2022-09-28T09:46:50.995Z,43.65
2022-09-28T09:49:26.380Z,43.57
2022-09-28T09:52:01.080Z,43.43
2022-09-28T09:54:35.461Z,43.21
2022-09-28T09:57:07.793Z,43.45
2022-09-28T09:59:40.227Z,43.24
2022-09-28T10:02:23.944Z,42.66
2022-09-28T10:04:57.142Z,42.54
2022-09-28T10:07:29.934Z,42.67
2022-09-28T10:10:01.311Z,43.07
2022-09-28T10:12:31.210Z,42.86
2022-09-28T10:14:59.365Z,42.44
2022-09-28T10:17:28.009Z,42.83
2022-09-28T10:19:58.082Z,43.23
2022-09-28T10:22:28.659Z,43.40
2022-09-28T10:24:59.011Z,42.98
2022-09-28T10:27:32.002Z,42.75
2022-09-28T10:30:03.184Z,43.16
2022-09-28T10:32:39.347Z,44.02
2022-09-28T10:35:22.811Z,44.87
2022-09-28T10:37:54.439Z,45.23
2022-09-28T10:40:34.684Z,45.48
2022-09-28T10:43:04.269Z,45.31
2022-09-28T10:45:37.397Z,45.16
2022-09-28T10:48:15.143Z,45.07
2022-09-28T10:50:44.810Z,45.47
2022-09-28T10:53:19.552Z,45.56
2022-09-28T10:55:59.857Z,45.85
2022-09-28T10:58:30.710Z,45.91
2022-09-28T11:01:05.196Z,45.97
2022-09-28T11:03:34.204Z,46.46
2022-09-28T11:06:06.923Z,46.08
2022-09-28T11:08:38.868Z,45.42
2022-09-28T11:11:10.083Z,44.78
2022-09-28T11:13:47.271Z,44.46
2022-09-28T11:16:24.319Z,44.62
2022-09-28T11:18:52.619Z,44.31
2022-09-28T11:21:25.125Z,43.71
2022-09-28T11:24:05.933Z,43.18
2022-09-28T11:26:43.030Z,43.26
2022-09-28T11:29:35.934Z,43.26
2022-09-28T11:32:07.138Z,42.74
2022-09-28T11:34:58.077Z,42.96
2022-09-28T11:38:07.041Z,44.05
2022-09-28T11:40:48.537Z,44.25
2022-09-28T11:43:33.297Z,44.50
2022-09-28T11:46:10.394Z,44.57
2022-09-28T11:48:43.422Z,45.34
2022-09-28T11:51:19.592Z,45.41
2022-09-28T11:53:53.901Z,45.80
2022-09-28T11:56:34.922Z,45.84
2022-09-28T11:59:10.033Z,45.87
2022-09-28T12:01:44.628Z,46.16
2022-09-28T12:04:17.554Z,46.40
2022-09-28T12:06:51.436Z,46.27
2022-09-28T12:09:26.553Z,46.29
2022-09-28T12:11:59.547Z,46.09
2022-09-28T12:14:32.148Z,46.12
2022-09-28T12:17:07.892Z,46.07
2022-09-28T12:19:42.401Z,45.40
2022-09-28T12:22:17.309Z,44.80
2022-09-28T12:24:50.596Z,44.72
2022-09-28T12:27:25.101Z,44.09
2022-09-28T12:30:01.946Z,43.70
2022-09-28T12:32:36.134Z,43.04
2022-09-28T12:35:11.728Z,42.78
2022-09-28T12:37:54.518Z,42.44
2022-09-28T12:40:40.835Z,42.77
2022-09-28T12:43:34.598Z,42.21
2022-09-28T12:46:21.254Z,42.51
2022-09-28T12:52:00.676Z,42.30
2022-09-28T12:54:53.978Z,42.38
2022-09-28T12:57:38.507Z,41.30
2022-09-28T13:00:11.755Z,41.23
2022-09-28T13:03:15.105Z,41.73
2022-09-28T13:06:10.496Z,42.19
2022-09-28T13:08:49.638Z,42.23
2022-09-28T13:11:31.995Z,42.33
2022-09-28T13:14:33.911Z,42.10
2022-09-28T13:17:10.053Z,43.02
2022-09-28T13:19:45.236Z,43.70
2022-09-28T13:22:29.373Z,44.66
2022-09-28T13:25:03.350Z,44.72
2022-09-28T13:27:36.620Z,44.23
2022-09-28T13:30:07.961Z,43.63
2022-09-28T13:32:39.042Z,42.37
2022-09-28T13:35:07.688Z,42.70
2022-09-28T13:37:35.719Z,42.53
2022-09-28T13:40:06.223Z,42.46
2022-09-28T13:43:06.799Z,42.40
2022-09-28T13:46:01.328Z,42.57
2022-09-28T13:48:46.232Z,42.85
2022-09-28T13:51:27.529Z,43.43
2022-09-28T13:54:19.098Z,43.50
2022-09-28T13:56:53.058Z,43.50
2022-09-28T13:59:27.388Z,43.85
2022-09-28T14:02:06.562Z,43.27
2022-09-28T14:04:56.439Z,43.58
2022-09-28T14:10:20.983Z,43.87
2022-09-28T14:12:51.789Z,44.08
2022-09-28T14:15:43.502Z,43.98
2022-09-28T14:18:34.727Z,44.04
2022-09-28T14:21:22.621Z,44.19
2022-09-28T14:24:03.979Z,44.05
2022-09-28T14:27:11.286Z,44.55
2022-09-28T14:29:40.685Z,45.15
2022-09-28T14:32:25.806Z,45.70
2022-09-28T14:35:00.805Z,45.50
2022-09-28T14:37:50.292Z,45.63
2022-09-28T14:40:37.442Z,45.29
2022-09-28T14:43:24.551Z,45.69
2022-09-28T14:46:14.649Z,45.19
2022-09-28T14:48:49.137Z,45.18
2022-09-28T14:51:58.467Z,46.66
2022-09-28T14:54:28.704Z,47.00
2022-09-28T14:57:09.424Z,45.83
2022-09-28T14:59:43.554Z,44.33
2022-09-28T15:02:20.495Z,43.10
2022-09-28T15:04:52.003Z,40.55
2022-09-28T15:07:25.072Z,40.08
2022-09-28T15:09:54.961Z,40.28
2022-09-28T15:12:27.830Z,39.25
2022-09-28T15:14:59.238Z,39.59
2022-09-28T15:17:30.345Z,39.57
2022-09-28T15:20:26.373Z,40.39
2022-09-28T15:22:58.636Z,41.21
2022-09-28T15:25:29.390Z,41.86
2022-09-28T15:27:59.612Z,42.07
2022-09-28T15:30:31.834Z,40.88
2022-09-28T15:33:15.781Z,40.36
2022-09-28T15:35:44.163Z,40.71
2022-09-28T15:38:18.098Z,40.17
2022-09-28T15:40:47.686Z,40.65
2022-09-28T15:43:27.099Z,41.32
2022-09-28T15:46:03.025Z,41.33
2022-09-28T15:48:35.252Z,40.99
2022-09-28T15:51:11.004Z,40.62
2022-09-28T15:53:58.382Z,40.65
2022-09-28T15:56:27.146Z,40.73
2022-09-28T15:59:19.671Z,40.91
2022-09-28T16:01:49.474Z,41.11
2022-09-28T16:04:39.626Z,41.15
2022-09-28T16:07:25.679Z,41.44
2022-09-28T16:10:01.305Z,41.56
2022-09-28T16:12:41.664Z,41.63
2022-09-28T16:15:20.410Z,41.84
2022-09-28T16:17:55.225Z,42.88
2022-09-28T16:20:29.531Z,43.38
2022-09-28T16:23:03.658Z,44.08
2022-09-28T16:25:35.923Z,43.28
2022-09-28T16:28:04.612Z,43.48
2022-09-28T16:30:34.744Z,42.39
2022-09-28T16:33:05.379Z,42.97
2022-09-28T16:35:50.226Z,42.70
2022-09-28T16:38:19.877Z,42.22
2022-09-28T16:40:51.406Z,42.38
2022-09-28T16:43:25.350Z,42.59
2022-09-28T16:45:58.215Z,42.05
2022-09-28T16:48:27.912Z,41.48
2022-09-28T16:50:55.991Z,42.12
2022-09-28T16:53:38.600Z,42.44
2022-09-28T16:56:08.609Z,43.06
2022-09-28T16:58:39.180Z,43.19
2022-09-28T17:01:08.777Z,43.93
2022-09-28T17:03:36.937Z,44.04
2022-09-28T17:06:06.548Z,44.25
2022-09-28T17:08:35.631Z,44.61
2022-09-28T17:11:24.202Z,45.02
2022-09-28T17:13:56.916Z,45.94
2022-09-28T17:16:58.209Z,46.29
2022-09-28T17:19:26.689Z,45.86
2022-09-28T17:21:55.451Z,46.07
2022-09-28T17:24:23.587Z,46.35
2022-09-28T17:26:53.124Z,46.67
2022-09-28T17:29:23.736Z,47.26
2022-09-28T17:31:52.175Z,48.63
2022-09-28T17:34:22.008Z,49.24
2022-09-28T17:36:52.908Z,50.05
2022-09-28T17:39:21.331Z,50.58
2022-09-28T17:41:49.342Z,51.51
2022-09-28T17:44:17.399Z,52.01
2022-09-28T17:46:49.694Z,52.40
2022-09-28T17:49:18.769Z,52.79
2022-09-28T17:51:47.026Z,52.35
2022-09-28T17:54:19.405Z,52.75
2022-09-28T17:56:47.490Z,52.74
2022-09-28T17:59:18.516Z,52.60
2022-09-28T18:01:48.571Z,52.66
2022-09-28T18:04:33.782Z,52.62
2022-09-28T18:07:05.322Z,52.47
2022-09-28T18:09:33.278Z,52.49
2022-09-28T18:12:05.096Z,52.08
2022-09-28T18:14:33.239Z,51.97
2022-09-28T18:17:02.843Z,52.34
2022-09-28T18:19:32.308Z,52.04
2022-09-28T18:22:01.556Z,52.42
2022-09-28T18:24:29.735Z,52.99
2022-09-28T18:26:57.762Z,52.93
2022-09-28T18:29:27.340Z,53.08
2022-09-28T18:31:57.971Z,53.33
2022-09-28T18:34:27.443Z,53.30
2022-09-28T18:36:55.343Z,53.54
2022-09-28T18:39:23.908Z,53.52
2022-09-28T18:41:51.903Z,53.96
2022-09-28T18:44:20.062Z,53.46
2022-09-28T18:46:48.114Z,53.81
2022-09-28T18:49:16.189Z,53.71
2022-09-28T18:51:45.626Z,53.68
2022-09-28T18:54:13.683Z,53.52
2022-09-28T18:56:41.736Z,53.86
2022-09-28T18:59:12.326Z,53.53
2022-09-28T19:01:42.004Z,53.37
2022-09-28T19:04:11.808Z,53.41
2022-09-28T19:06:41.764Z,53.44
2022-09-28T19:09:12.415Z,53.16
2022-09-28T19:11:40.498Z,53.23
2022-09-28T19:14:11.154Z,52.59
2022-09-28T19:16:39.244Z,52.20
2022-09-28T19:19:08.114Z,52.16
2022-09-28T19:21:36.353Z,51.86
2022-09-28T19:24:05.880Z,51.92
2022-09-28T19:26:35.486Z,52.12
2022-09-28T19:29:03.515Z,52.35
2022-09-28T19:31:32.705Z,52.07
2022-09-28T19:34:00.742Z,52.37
2022-09-28T19:36:29.674Z,52.37
2022-09-28T19:39:02.948Z,52.42
2022-09-28T19:41:44.573Z,52.34
2022-09-28T19:44:24.703Z,52.42
2022-09-28T19:46:54.711Z,52.38
2022-09-28T19:49:23.973Z,52.30
2022-09-28T19:52:11.957Z,51.76
2022-09-28T19:54:43.918Z,52.21
2022-09-28T19:57:12.622Z,51.96
2022-09-28T19:59:42.819Z,52.01
2022-09-28T20:02:11.845Z,51.78
2022-09-28T20:04:42.689Z,51.90
2022-09-28T20:07:10.770Z,51.94
2022-09-28T20:09:38.909Z,51.61
2022-09-28T20:12:07.027Z,51.74
2022-09-28T20:14:38.252Z,51.47
2022-09-28T20:17:10.585Z,51.35
2022-09-28T20:19:38.630Z,51.39
2022-09-28T20:22:06.579Z,51.38
2022-09-28T20:24:34.498Z,51.35
2022-09-28T20:27:02.951Z,51.35
2022-09-28T20:29:33.479Z,51.22
2022-09-28T20:32:02.398Z,51.21
2022-09-28T20:34:33.631Z,51.10
2022-09-28T20:37:01.722Z,51.04
2022-09-28T20:39:29.738Z,50.95
2022-09-28T20:41:57.742Z,50.99
2022-09-28T20:44:25.733Z,50.83
2022-09-28T20:46:53.820Z,50.70
2022-09-28T20:49:21.825Z,50.67
2022-09-28T20:51:51.295Z,51.02
2022-09-28T20:54:19.308Z,50.88
2022-09-28T20:56:48.340Z,50.96
2022-09-28T20:59:16.408Z,51.20
2022-09-28T21:01:44.634Z,50.95
2022-09-28T21:04:12.994Z,51.12
2022-09-28T21:06:42.863Z,50.92
2022-09-28T21:09:12.769Z,50.77
2022-09-28T21:11:41.776Z,50.78
2022-09-28T21:14:10.972Z,50.83
2022-09-28T21:16:41.736Z,50.67
2022-09-28T21:19:09.855Z,50.38
2022-09-28T21:21:38.220Z,50.38
2022-09-28T21:24:06.553Z,50.24
2022-09-28T21:26:37.213Z,50.13
2022-09-28T21:29:06.693Z,50.00
2022-09-28T21:31:39.755Z,49.93
2022-09-28T21:34:08.718Z,50.00
2022-09-28T21:36:37.220Z,49.94
2022-09-28T21:39:10.099Z,49.85
2022-09-28T21:41:41.213Z,49.82
2022-09-28T21:44:10.683Z,49.79
2022-09-28T21:46:40.499Z,49.85
2022-09-28T21:49:12.756Z,49.62
2022-09-28T21:51:41.904Z,49.69
2022-09-28T21:57:19.644Z,49.65
2022-09-28T21:59:49.734Z,49.48
2022-09-28T22:02:18.493Z,49.68
2022-09-28T22:04:46.609Z,50.06
2022-09-28T22:07:14.762Z,49.81
2022-09-28T22:09:42.820Z,50.21
2022-09-28T22:12:10.901Z,50.01
2022-09-28T22:14:40.544Z,50.19
2022-09-28T22:17:08.513Z,50.01
2022-09-28T22:19:36.627Z,50.03
2022-09-28T22:22:04.545Z,50.18
2022-09-28T22:24:32.616Z,50.24
2022-09-28T22:27:01.495Z,50.48
2022-09-28T22:29:29.776Z,50.42
2022-09-28T22:32:02.364Z,50.53
2022-09-28T22:34:32.944Z,50.49
2022-09-28T22:37:01.421Z,50.54
2022-09-28T22:39:32.169Z,51.13
2022-09-28T22:42:02.301Z,50.62
2022-09-28T22:44:30.360Z,50.56
2022-09-28T22:46:59.978Z,50.77
2022-09-28T22:49:28.703Z,50.07
2022-09-28T22:51:56.781Z,50.62
2022-09-28T22:54:24.940Z,50.23
2022-09-28T22:56:53.031Z,50.38
2022-09-28T22:59:21.164Z,50.32
2022-09-28T23:01:49.533Z,49.89
2022-09-28T23:04:19.598Z,50.10
2022-09-28T23:06:47.811Z,50.18
2022-09-28T23:09:15.880Z,50.14
2022-09-28T23:11:44.495Z,50.38
2022-09-28T23:14:13.631Z,50.18
2022-09-28T23:16:41.851Z,50.50
2022-09-28T23:19:09.939Z,49.93
2022-09-28T23:21:39.827Z,50.35
2022-09-28T23:24:07.940Z,50.51
2022-09-28T23:26:37.058Z,50.56
2022-09-28T23:29:05.878Z,50.74
2022-09-28T23:31:35.090Z,50.63
2022-09-28T23:34:06.214Z,50.62
2022-09-28T23:36:35.160Z,50.33
2022-09-28T23:39:05.046Z,50.54
2022-09-28T23:41:33.153Z,50.48
2022-09-28T23:44:01.494Z,50.68
2022-09-28T23:46:29.506Z,50.48
2022-09-28T23:48:57.593Z,50.45
2022-09-28T23:51:26.130Z,50.67
2022-09-28T23:53:54.255Z,50.74
2022-09-28T23:56:23.891Z,50.81
2022-09-28T23:58:52.145Z,51.00
